Time,TemperatureF,DewpointF,PressureIn,WindDirection,WindDirectionDegrees,WindSpeedMPH,WindSpeedGustMPH,Humidity,HourlyPrecipIn,Conditions,Clouds,dailyrainin,SoftwareType,DateUTC
2013-01-19 00:03:00,32.0,5.4,30.19,NNE,21,0.0,0.0,32,0.00,CLR,,0.00,WeatherDisplay:10.37,2013-01-19 08:03:00,
2013-01-19 00:08:00,32.5,5.2,30.18,NNE,21,0.0,0.0,31,0.00,CLR,,0.00,WeatherDisplay:10.37,2013-01-19 08:08:00,
2013-01-19 00:13:00,32.9,5.5,30.19,NNE,21,2.3,2.3,31,0.00,CLR,,0.00,WeatherDisplay:10.37,2013-01-19 08:13:00,
2013-01-19 00:18:00,33.1,5.7,30.19,NNE,21,1.1,1.1,31,0.00,CLR,,0.00,WeatherDisplay:10.37,2013-01-19 08:18:00,
2013-01-19 00:23:00,33.6,5.4,30.18,NNE,21,0.0,0.0,30,0.00,CLR,,0.00,WeatherDisplay:10.37,2013-01-19 08:23:00,
2013-01-19 00:28:00,33.1,3.5,30.19,NNE,21,0.0,0.0,28,0.00,CLR,,0.00,WeatherDisplay:10.37,2013-01-19 08:28:00,
2013-01-19 00:33:00,30.9,3.0,30.19,NNE,21,0.0,0.0,30,0.00,CLR,,0.00,WeatherDisplay:10.37,2013-01-19 08:33:00,
2013-01-19 00:38:00,30.0,3.7,30.19,NNE,21,0.0,0.0,32,0.00,CLR,,0.00,WeatherDisplay:10.37,2013-01-19 08:38:00,
2013-01-19 00:43:00,30.2,4.5,30.19,NNE,21,2.3,2.3,33,0.00,CLR,,0.00,WeatherDisplay:10.37,2013-01-19 08:43:00,
2013-01-19 00:48:00,30.5,5.4,30.19,NNE,21,0.0,0.0,34,0.00,CLR,,0.00,WeatherDisplay:10.37,2013-01-19 08:48:00,
2013-01-19 00:53:00,30.7,5.6,30.19,NNE,21,0.0,0.0,34,0.00,CLR,,0.00,WeatherDisplay:10.37,2013-01-19 08:53:00,
2013-01-19 00:58:00,31.1,6.0,30.19,NNE,21,0.0,0.0,34,0.00,CLR,,0.00,WeatherDisplay:10.37,2013-01-19 08:58:00,
2013-01-19 01:03:00,31.1,5.3,30.19,NNE,21,0.0,0.0,33,0.00,CLR,,0.00,WeatherDisplay:10.37,2013-01-19 09:03:00,
2013-01-19 01:08:00,30.7,4.3,30.19,NNE,21,0.0,0.0,32,0.00,CLR,,0.00,WeatherDisplay:10.37,2013-01-19 09:08:00,
2013-01-19 01:13:00,30.6,4.2,30.19,NNE,21,2.3,2.3,32,0.00,CLR,,0.00,WeatherDisplay:10.37,2013-01-19 09:13:00,
2013-01-19 01:18:00,30.7,4.3,30.19,NNE,21,3.5,3.5,32,0.00,CLR,,0.00,WeatherDisplay:10.37,2013-01-19 09:18:00,
2013-01-19 01:23:00,31.9,5.3,30.19,NNE,21,2.3,2.3,32,0.00,CLR,,0.00,WeatherDisplay:10.37,2013-01-19 09:23:00,
2013-01-19 01:28:00,30.3,2.5,30.20,ENE,57,4.6,4.6,30,0.00,CLR,,0.00,WeatherDisplay:10.37,2013-01-19 09:28:00,
2013-01-19 01:33:00,28.7,3.2,30.20,ENE,57,3.5,3.5,33,0.00,CLR,,0.00,WeatherDisplay:10.37,2013-01-19 09:33:00,
2013-01-19 01:38:00,28.3,3.5,30.20,ENE,57,3.5,3.5,34,0.00,CLR,,0.00,WeatherDisplay:10.37,2013-01-19 09:38:00,
2013-01-19 01:43:00,28.1,3.3,30.21,ENE,57,0.0,0.0,34,0.00,CLR,,0.00,WeatherDisplay:10.37,2013-01-19 09:43:00,
2013-01-19 01:48:00,27.6,2.2,30.21,ENE,57,1.1,0.0,33,0.00,CLR,,0.00,WeatherDisplay:10.37,2013-01-19 09:48:00,
2013-01-19 01:53:00,27.2,3.1,30.21,ENE,57,0.0,1.0,35,0.00,CLR,,0.00,WeatherDisplay:10.37,2013-01-19 09:53:00,
2013-01-19 01:58:00,27.2,4.3,30.21,ENE,57,3.5,3.5,37,0.00,CLR,,0.00,WeatherDisplay:10.37,2013-01-19 09:58:00,
2013-01-19 02:03:00,27.3,5.0,30.21,ENE,57,3.5,3.5,38,0.00,CLR,,0.00,WeatherDisplay:10.37,2013-01-19 10:03:00,
2013-01-19 02:09:00,27.6,5.8,30.21,ENE,57,0.0,0.0,39,0.00,CLR,,0.00,WeatherDisplay:10.37,2013-01-19 10:09:00,
2013-01-19 02:14:00,27.8,6.0,30.21,ENE,57,1.1,1.1,39,0.00,CLR,,0.00,WeatherDisplay:10.37,2013-01-19 10:14:00,
2013-01-19 02:19:00,27.7,5.9,30.21,ENE,57,0.0,0.0,39,0.00,CLR,,0.00,WeatherDisplay:10.37,2013-01-19 10:19:00,
2013-01-19 02:24:00,27.6,5.8,30.21,ENE,57,1.1,0.0,39,0.00,CLR,,0.00,WeatherDisplay:10.37,2013-01-19 10:24:00,
2013-01-19 02:29:00,27.7,6.5,30.21,ENE,57,1.1,0.0,40,0.00,CLR,,0.00,WeatherDisplay:10.37,2013-01-19 10:29:00,
2013-01-19 02:34:00,27.6,5.3,30.22,ENE,57,0.0,0.0,38,0.00,CLR,,0.00,WeatherDisplay:10.37,2013-01-19 10:34:00,
2013-01-19 02:39:00,27.2,4.3,30.22,ENE,57,0.0,0.0,37,0.00,CLR,,0.00,WeatherDisplay:10.37,2013-01-19 10:39:00,
2013-01-19 02:45:00,26.6,4.4,30.22,ENE,57,0.0,0.0,38,0.00,CLR,,0.00,WeatherDisplay:10.37,2013-01-19 10:45:00,
2013-01-19 02:50:00,26.2,4.6,30.22,ENE,57,0.0,0.0,39,0.00,CLR,,0.00,WeatherDisplay:10.37,2013-01-19 10:50:00,
2013-01-19 02:55:00,26.0,4.9,30.22,ENE,57,0.0,0.0,40,0.00,CLR,,0.00,WeatherDisplay:10.37,2013-01-19 10:55:00,
2013-01-19 03:00:00,25.8,4.8,30.22,ENE,57,0.0,0.0,40,0.00,CLR,,0.00,WeatherDisplay:10.37,2013-01-19 11:00:00,
2013-01-19 03:05:00,25.7,4.7,30.22,ENE,57,0.0,0.0,40,0.00,CLR,,0.00,WeatherDisplay:10.37,2013-01-19 11:05:00,
2013-01-19 03:10:00,25.8,4.8,30.22,ENE,57,0.0,0.0,40,0.00,CLR,,0.00,WeatherDisplay:10.37,2013-01-19 11:10:00,
2013-01-19 04:48:00,24.7,3.8,30.23,East,90,5.8,5.8,40,0.00,CLR,,0.00,WeatherDisplay:10.37,2013-01-19 12:48:00,
2013-01-19 04:50:00,24.7,3.8,30.23,East,90,5.8,5.8,40,0.00,CLR,,0.00,WeatherDisplay:10.37,2013-01-19 12:50:00,
2013-01-19 04:51:00,24.5,3.6,30.23,East,90,4.6,4.6,40,0.00,CLR,,0.00,WeatherDisplay:10.37,2013-01-19 12:51:00,
2013-01-19 04:57:00,23.3,2.5,30.23,East,95,6.0,6.0,40,0.00,CLR,,0.00,WeatherDisplay:10.37,2013-01-19 12:57:00,
2013-01-19 05:02:00,22.7,2.0,30.25,East,95,3.5,3.5,40,0.00,CLR,,0.00,WeatherDisplay:10.37,2013-01-19 13:02:00,
2013-01-19 05:07:00,22.3,2.1,30.26,East,95,1.1,1.1,41,0.00,CLR,,0.00,WeatherDisplay:10.37,2013-01-19 13:07:00,
2013-01-19 05:12:00,22.0,1.3,30.26,East,95,0.0,0.0,40,0.00,CLR,,0.00,WeatherDisplay:10.37,2013-01-19 13:12:00,
2013-01-19 05:17:00,20.9,0.3,30.27,East,95,2.3,2.3,40,0.00,CLR,,0.00,WeatherDisplay:10.37,2013-01-19 13:17:00,
2013-01-19 05:22:00,20.4,0.9,30.27,East,95,0.0,0.0,42,0.00,CLR,,0.00,WeatherDisplay:10.37,2013-01-19 13:22:00,
2013-01-19 05:27:00,20.6,1.1,30.27,East,95,0.0,0.0,42,0.00,CLR,,0.00,WeatherDisplay:10.37,2013-01-19 13:27:00,
2013-01-19 05:32:00,21.0,1.5,30.27,East,95,0.0,0.0,42,0.00,CLR,,0.00,WeatherDisplay:10.37,2013-01-19 13:32:00,
2013-01-19 05:37:00,21.4,2.3,30.27,East,95,0.0,0.0,43,0.00,CLR,,0.00,WeatherDisplay:10.37,2013-01-19 13:37:00,
2013-01-19 05:42:00,21.7,2.6,30.27,East,95,0.0,0.0,43,0.00,CLR,,0.00,WeatherDisplay:10.37,2013-01-19 13:42:00,
2013-01-19 05:47:00,22.0,2.9,30.27,East,95,0.0,0.0,43,0.00,CLR,,0.00,WeatherDisplay:10.37,2013-01-19 13:47:00,
2013-01-19 05:52:00,22.3,3.7,30.27,East,95,0.0,0.0,44,0.00,CLR,,0.00,WeatherDisplay:10.37,2013-01-19 13:52:00,
2013-01-19 05:57:00,22.6,3.9,30.27,East,95,0.0,0.0,44,0.00,CLR,,0.00,WeatherDisplay:10.37,2013-01-19 13:57:00,
2013-01-19 06:02:00,23.1,4.4,30.27,East,95,0.0,0.0,44,0.00,CLR,,0.00,WeatherDisplay:10.37,2013-01-19 14:02:00,
2013-01-19 06:07:00,23.4,4.7,30.27,East,95,0.0,0.0,44,0.00,CLR,,0.00,WeatherDisplay:10.37,2013-01-19 14:07:00,
2013-01-19 06:12:00,23.4,4.7,30.27,East,95,0.0,0.0,44,0.00,CLR,,0.00,WeatherDisplay:10.37,2013-01-19 14:12:00,
2013-01-19 06:17:00,23.8,6.9,30.27,East,95,0.0,0.0,48,0.00,CLR,,0.00,WeatherDisplay:10.37,2013-01-19 14:17:00,
2013-01-19 06:22:00,24.1,5.3,30.27,East,95,0.0,0.0,44,0.00,CLR,,0.00,WeatherDisplay:10.37,2013-01-19 14:22:00,
2013-01-19 06:27:00,24.4,6.1,30.27,East,95,0.0,0.0,45,0.00,CLR,,0.00,WeatherDisplay:10.37,2013-01-19 14:27:00,
2013-01-19 06:32:00,24.8,5.9,30.27,East,95,0.0,0.0,44,0.00,CLR,,0.00,WeatherDisplay:10.37,2013-01-19 14:32:00,
2013-01-19 06:38:00,24.8,5.9,30.27,East,95,0.0,0.0,44,0.00,CLR,,0.00,WeatherDisplay:10.37,2013-01-19 14:38:00,
2013-01-19 06:43:00,24.5,5.2,30.27,East,95,0.0,0.0,43,0.00,CLR,,0.00,WeatherDisplay:10.37,2013-01-19 14:43:00,
2013-01-19 06:48:00,24.2,4.9,30.28,East,95,0.0,0.0,43,0.00,CLR,,0.00,WeatherDisplay:10.37,2013-01-19 14:48:00,
2013-01-19 06:53:00,23.9,5.1,30.28,East,95,0.0,0.0,44,0.00,CLR,,0.00,WeatherDisplay:10.37,2013-01-19 14:53:00,
2013-01-19 06:58:00,23.7,6.8,30.28,East,95,0.0,0.0,48,0.00,CLR,,0.00,WeatherDisplay:10.37,2013-01-19 14:58:00,
2013-01-19 07:03:00,23.6,4.8,30.29,East,95,0.0,0.0,44,0.00,CLR,,0.00,WeatherDisplay:10.37,2013-01-19 15:03:00,
2013-01-19 07:08:00,23.6,4.8,30.29,East,95,0.0,0.0,44,0.00,CLR,,0.00,WeatherDisplay:10.37,2013-01-19 15:08:00,
2013-01-19 07:13:00,23.8,5.0,30.30,East,95,0.0,0.0,44,0.00,CLR,,0.00,WeatherDisplay:10.37,2013-01-19 15:13:00,
2013-01-19 07:18:00,24.0,5.2,30.30,East,95,0.0,0.0,44,0.00,CLR,,0.00,WeatherDisplay:10.37,2013-01-19 15:18:00,
2013-01-19 07:23:00,24.5,5.2,30.30,East,95,0.0,0.0,43,0.00,CLR,,0.00,WeatherDisplay:10.37,2013-01-19 15:23:00,
2013-01-19 07:28:00,24.8,4.9,30.30,East,95,3.5,3.7,42,0.00,CLR,,0.00,WeatherDisplay:10.37,2013-01-19 15:28:00,
2013-01-19 07:33:00,24.5,5.2,30.30,East,95,3.5,3.5,43,0.00,CLR,,0.00,WeatherDisplay:10.37,2013-01-19 15:33:00,
2013-01-19 07:38:00,24.7,4.8,30.31,East,95,0.0,0.0,42,0.00,CLR,,0.00,WeatherDisplay:10.37,2013-01-19 15:38:00,
2013-01-19 07:43:00,25.4,4.9,30.31,East,95,1.0,1.0,41,0.00,CLR,,0.00,WeatherDisplay:10.37,2013-01-19 15:43:00,
2013-01-19 07:48:00,26.1,4.5,30.30,East,95,2.3,2.3,39,0.00,CLR,,0.00,WeatherDisplay:10.37,2013-01-19 15:48:00,
2013-01-19 07:53:00,26.3,4.7,30.30,East,95,0.0,0.0,39,0.00,CLR,,0.00,WeatherDisplay:10.37,2013-01-19 15:53:00,
2013-01-19 07:58:00,26.6,5.5,30.31,East,95,0.0,0.0,40,0.00,CLR,,0.00,WeatherDisplay:10.37,2013-01-19 15:58:00,
2013-01-19 08:03:00,27.4,6.2,30.30,East,95,0.0,0.0,40,0.00,CLR,,0.00,WeatherDisplay:10.37,2013-01-19 16:03:00,
2013-01-19 08:08:00,28.1,6.8,30.31,East,95,0.0,0.0,40,0.00,CLR,,0.00,WeatherDisplay:10.37,2013-01-19 16:08:00,
2013-01-19 08:13:00,28.5,7.2,30.30,East,95,1.1,1.1,40,0.00,CLR,,0.00,WeatherDisplay:10.37,2013-01-19 16:13:00,
2013-01-19 08:18:00,28.7,7.4,30.30,East,95,1.1,0.0,40,0.00,CLR,,0.00,WeatherDisplay:10.37,2013-01-19 16:18:00,
2013-01-19 08:23:00,29.2,7.8,30.30,East,95,0.0,0.0,40,0.00,CLR,,0.00,WeatherDisplay:10.37,2013-01-19 16:23:00,
2013-01-19 08:28:00,29.9,7.9,30.31,East,95,0.0,0.0,39,0.00,CLR,,0.00,WeatherDisplay:10.37,2013-01-19 16:28:00,
2013-01-19 08:33:00,30.4,7.8,30.31,East,95,0.0,0.0,38,0.00,CLR,,0.00,WeatherDisplay:10.37,2013-01-19 16:33:00,
2013-01-19 08:38:00,31.2,7.9,30.31,East,95,0.0,0.0,37,0.00,CLR,,0.00,WeatherDisplay:10.37,2013-01-19 16:38:00,
2013-01-19 08:43:00,32.2,8.8,30.31,East,95,0.0,0.0,37,0.00,CLR,,0.00,WeatherDisplay:10.37,2013-01-19 16:43:00,
2013-01-19 08:48:00,33.1,9.0,30.31,East,95,0.0,0.0,36,0.00,CLR,,0.00,WeatherDisplay:10.37,2013-01-19 16:48:00,
2013-01-19 08:53:00,34.4,8.9,30.31,East,95,0.0,0.0,34,0.00,CLR,,0.00,WeatherDisplay:10.37,2013-01-19 16:53:00,
2013-01-19 08:58:00,35.7,9.4,30.30,East,95,0.0,0.0,33,0.00,CLR,,0.00,WeatherDisplay:10.37,2013-01-19 16:58:00,
2013-01-19 09:03:00,36.5,10.1,30.31,East,95,0.0,0.0,33,0.00,CLR,,0.00,WeatherDisplay:10.37,2013-01-19 17:03:00,
2013-01-19 09:08:00,36.9,10.4,30.31,East,95,3.5,3.5,33,0.00,CLR,,0.00,WeatherDisplay:10.37,2013-01-19 17:08:00,
2013-01-19 09:13:00,37.6,10.4,30.31,East,95,3.5,3.5,32,0.00,CLR,,0.00,WeatherDisplay:10.37,2013-01-19 17:13:00,
2013-01-19 09:18:00,38.3,10.3,30.31,East,95,0.0,0.0,31,0.00,CLR,,0.00,WeatherDisplay:10.37,2013-01-19 17:18:00,
2013-01-19 09:24:00,38.7,10.6,30.32,East,95,0.0,0.0,31,0.00,CLR,,0.00,WeatherDisplay:10.37,2013-01-19 17:24:00,
2013-01-19 09:29:00,39.1,11.0,30.32,East,95,0.0,0.0,31,0.00,CLR,,0.00,WeatherDisplay:10.37,2013-01-19 17:29:00,
2013-01-19 09:34:00,39.6,11.4,30.32,East,95,0.0,0.0,31,0.00,CLR,,0.00,WeatherDisplay:10.37,2013-01-19 17:34:00,
2013-01-19 09:39:00,40.4,11.4,30.32,East,95,0.0,0.0,30,0.00,CLR,,0.00,WeatherDisplay:10.37,2013-01-19 17:39:00,
2013-01-19 09:44:00,41.2,12.1,30.32,East,95,0.0,0.0,30,0.00,CLR,,0.00,WeatherDisplay:10.37,2013-01-19 17:44:00,
2013-01-19 09:49:00,41.5,12.3,30.31,East,95,0.0,0.0,30,0.00,CLR,,0.00,WeatherDisplay:10.37,2013-01-19 17:49:00,
2013-01-19 09:54:00,41.1,12.0,30.32,East,95,0.0,0.0,30,0.00,CLR,,0.00,WeatherDisplay:10.37,2013-01-19 17:54:00,
2013-01-19 09:59:00,41.0,12.6,30.32,East,95,0.0,0.0,31,0.00,CLR,,0.00,WeatherDisplay:10.37,2013-01-19 17:59:00,
2013-01-19 10:04:00,41.3,12.1,30.32,East,95,4.0,4.0,30,0.00,CLR,,0.00,WeatherDisplay:10.37,2013-01-19 18:04:00,
2013-01-19 10:10:00,41.8,11.8,30.32,East,95,1.1,0.0,29,0.00,CLR,,0.00,WeatherDisplay:10.37,2013-01-19 18:10:00,
2013-01-19 10:15:00,42.3,12.3,30.31,East,95,3.5,3.5,29,0.00,CLR,,0.00,WeatherDisplay:10.37,2013-01-19 18:15:00,
2013-01-19 10:20:00,42.6,11.7,30.31,East,95,4.0,4.0,28,0.00,CLR,,0.00,WeatherDisplay:10.37,2013-01-19 18:20:00,
2013-01-19 10:25:00,43.2,12.2,30.31,East,95,4.6,4.6,28,0.00,CLR,,0.00,WeatherDisplay:10.37,2013-01-19 18:25:00,
2013-01-19 10:30:00,44.0,12.9,30.30,East,95,5.0,5.0,28,0.00,CLR,,0.00,WeatherDisplay:10.37,2013-01-19 18:30:00,
2013-01-19 10:35:00,44.5,14.2,30.30,East,95,4.0,4.0,29,0.00,CLR,,0.00,WeatherDisplay:10.37,2013-01-19 18:35:00,
2013-01-19 10:40:00,45.0,13.8,30.29,East,95,4.6,4.6,28,0.00,CLR,,0.00,WeatherDisplay:10.37,2013-01-19 18:40:00,
2013-01-19 10:45:00,45.4,14.1,30.29,East,96,0.0,0.0,28,0.00,CLR,,0.00,WeatherDisplay:10.37,2013-01-19 18:45:00,
2013-01-19 10:50:00,46.6,14.4,30.28,East,92,0.0,0.0,27,0.00,CLR,,0.00,WeatherDisplay:10.37,2013-01-19 18:50:00,
2013-01-19 10:55:00,47.4,15.0,30.28,East,92,0.0,0.0,27,0.00,CLR,,0.00,WeatherDisplay:10.37,2013-01-19 18:55:00,
2013-01-19 11:00:00,47.8,14.5,30.27,East,92,5.8,5.8,26,0.00,CLR,,0.00,WeatherDisplay:10.37,2013-01-19 19:00:00,
2013-01-19 11:06:00,47.9,14.6,30.28,East,92,3.5,3.5,26,0.00,CLR,,0.00,WeatherDisplay:10.37,2013-01-19 19:06:00,
2013-01-19 11:11:00,48.6,15.2,30.28,East,92,4.6,4.6,26,0.00,CLR,,0.00,WeatherDisplay:10.37,2013-01-19 19:11:00,
2013-01-19 11:16:00,49.3,14.9,30.27,East,92,3.5,3.5,25,0.00,CLR,,0.00,WeatherDisplay:10.37,2013-01-19 19:16:00,
2013-01-19 11:21:00,50.1,15.6,30.27,East,92,3.5,3.5,25,0.00,CLR,,0.00,WeatherDisplay:10.37,2013-01-19 19:21:00,
2013-01-19 11:26:00,50.8,15.2,30.27,East,92,0.0,0.0,24,0.00,CLR,,0.00,WeatherDisplay:10.37,2013-01-19 19:26:00,
2013-01-19 11:32:00,51.8,15.1,30.26,East,92,0.0,0.0,23,0.00,CLR,,0.00,WeatherDisplay:10.37,2013-01-19 19:32:00,
2013-01-19 11:37:00,52.6,15.8,30.25,East,92,0.0,0.0,23,0.00,CLR,,0.00,WeatherDisplay:10.37,2013-01-19 19:37:00,
2013-01-19 11:42:00,53.4,16.5,30.25,East,92,0.0,0.0,23,0.00,CLR,,0.00,WeatherDisplay:10.37,2013-01-19 19:42:00,
2013-01-19 11:48:00,54.6,16.5,30.24,East,92,0.0,0.0,22,0.00,CLR,,0.00,WeatherDisplay:10.37,2013-01-19 19:48:00,
2013-01-19 11:53:00,55.6,16.2,30.23,East,92,0.0,0.0,21,0.00,CLR,,0.00,WeatherDisplay:10.37,2013-01-19 19:53:00,
2013-01-19 11:59:00,56.5,15.8,30.23,East,92,0.0,0.0,20,0.00,CLR,,0.00,WeatherDisplay:10.37,2013-01-19 19:59:00,
2013-01-19 12:04:00,57.6,16.8,30.22,East,92,0.0,0.0,20,0.00,CLR,,0.00,WeatherDisplay:10.37,2013-01-19 20:04:00,
2013-01-19 12:09:00,58.2,16.1,30.22,East,90,3.0,3.0,19,0.00,CLR,,0.00,WeatherDisplay:10.37,2013-01-19 20:09:00,
2013-01-19 12:15:00,58.4,16.2,30.22,East,91,0.0,0.0,19,0.00,CLR,,0.00,WeatherDisplay:10.37,2013-01-19 20:15:00,
2013-01-19 12:21:00,59.1,16.8,30.21,East,91,4.0,4.0,19,0.00,CLR,,0.00,WeatherDisplay:10.37,2013-01-19 20:21:00,
2013-01-19 12:27:00,59.6,16.0,30.20,East,82,3.5,3.5,18,0.00,CLR,,0.00,WeatherDisplay:10.37,2013-01-19 20:27:00,
2013-01-19 12:32:00,59.8,16.1,30.20,East,101,6.9,6.9,18,0.00,CLR,,0.00,WeatherDisplay:10.37,2013-01-19 20:32:00,
2013-01-19 12:37:00,59.9,16.2,30.20,East,92,7.0,7.0,18,0.00,CLR,,0.00,WeatherDisplay:10.37,2013-01-19 20:37:00,
2013-01-19 12:42:00,59.8,16.1,30.20,ENE,65,3.5,3.5,18,0.00,CLR,,0.00,WeatherDisplay:10.37,2013-01-19 20:42:00,
2013-01-19 12:47:00,60.3,15.2,30.19,East,92,3.5,3.5,17,0.00,CLR,,0.00,WeatherDisplay:10.37,2013-01-19 20:47:00,
2013-01-19 12:53:00,60.1,16.4,30.19,ESE,113,6.9,6.9,18,0.00,CLR,,0.00,WeatherDisplay:10.37,2013-01-19 20:53:00,
2013-01-19 12:58:00,60.2,16.5,30.19,ESE,103,3.5,3.5,18,0.00,CLR,,0.00,WeatherDisplay:10.37,2013-01-19 20:58:00,
2013-01-19 13:03:00,60.6,15.5,30.19,East,97,10.4,10.4,17,0.00,CLR,,0.00,WeatherDisplay:10.37,2013-01-19 21:03:00,
2013-01-19 13:08:00,60.8,17.0,30.19,East,96,10.4,10.4,18,0.00,CLR,,0.00,WeatherDisplay:10.37,2013-01-19 21:08:00,
2013-01-19 13:13:00,60.5,15.4,30.19,ENE,67,3.5,3.5,17,0.00,CLR,,0.00,WeatherDisplay:10.37,2013-01-19 21:13:00,
2013-01-19 13:19:00,60.8,15.6,30.19,ENE,78,13.8,13.8,17,0.00,CLR,,0.00,WeatherDisplay:10.37,2013-01-19 21:19:00,
2013-01-19 13:24:00,61.2,16.0,30.19,East,92,10.4,10.4,17,0.00,CLR,,0.00,WeatherDisplay:10.37,2013-01-19 21:24:00,
2013-01-19 13:29:00,61.4,16.1,30.19,ESE,115,10.4,10.4,17,0.00,CLR,,0.00,WeatherDisplay:10.37,2013-01-19 21:29:00,
2013-01-19 13:34:00,61.6,16.3,30.19,ENE,65,9.2,9.2,17,0.00,CLR,,0.00,WeatherDisplay:10.37,2013-01-19 21:34:00,
2013-01-19 13:40:00,62.2,15.4,30.18,NE,47,5.8,5.8,16,0.00,CLR,,0.00,WeatherDisplay:10.37,2013-01-19 21:40:00,
2013-01-19 13:45:00,62.1,15.3,30.18,ENE,61,4.0,4.0,16,0.00,CLR,,0.00,WeatherDisplay:10.37,2013-01-19 21:45:00,
2013-01-19 13:52:00,62.5,15.6,30.17,NE,49,8.1,8.1,16,0.00,CLR,,0.00,WeatherDisplay:10.37,2013-01-19 21:52:00,
2013-01-19 13:57:00,62.4,15.6,30.18,NE,43,6.9,6.9,16,0.00,CLR,,0.00,WeatherDisplay:10.37,2013-01-19 21:57:00,
2013-01-19 14:02:00,62.5,15.6,30.18,ENE,57,11.5,11.5,16,0.00,CLR,,0.00,WeatherDisplay:10.37,2013-01-19 22:02:00,
2013-01-19 14:07:00,62.5,15.6,30.17,ENE,73,9.0,9.0,16,0.00,CLR,,0.00,WeatherDisplay:10.37,2013-01-19 22:07:00,
2013-01-19 14:12:00,62.4,15.6,30.17,ENE,78,11.5,11.5,16,0.00,CLR,,0.00,WeatherDisplay:10.37,2013-01-19 22:12:00,
2013-01-19 14:18:00,62.2,15.4,30.17,ENE,76,10.4,10.4,16,0.00,CLR,,0.00,WeatherDisplay:10.37,2013-01-19 22:18:00,
2013-01-19 14:23:00,62.4,15.6,30.17,East,86,6.9,6.9,16,0.00,CLR,,0.00,WeatherDisplay:10.37,2013-01-19 22:23:00,
2013-01-19 14:28:00,62.2,15.4,30.17,East,80,9.2,9.2,16,0.00,CLR,,0.00,WeatherDisplay:10.37,2013-01-19 22:28:00,
2013-01-19 14:33:00,62.3,15.5,30.17,ENE,60,4.6,4.6,16,0.00,CLR,,0.00,WeatherDisplay:10.37,2013-01-19 22:33:00,
2013-01-19 14:38:00,62.9,16.0,30.17,ENE,57,4.0,4.0,16,0.00,CLR,,0.00,WeatherDisplay:10.37,2013-01-19 22:38:00,
2013-01-19 14:44:00,63.0,14.6,30.16,East,88,4.6,4.6,15,0.00,CLR,,0.00,WeatherDisplay:10.37,2013-01-19 22:44:00,
2013-01-19 14:50:00,63.2,14.7,30.16,ENE,64,10.4,10.4,15,0.00,CLR,,0.00,WeatherDisplay:10.37,2013-01-19 22:50:00,
2013-01-19 14:55:00,63.0,14.6,30.16,ENE,60,6.9,6.9,15,0.00,CLR,,0.00,WeatherDisplay:10.37,2013-01-19 22:55:00,
2013-01-19 15:00:00,62.9,16.0,30.16,ENE,65,6.9,6.9,16,0.00,CLR,,0.00,WeatherDisplay:10.37,2013-01-19 23:00:00,
2013-01-19 15:05:00,62.8,14.4,30.16,ENE,67,6.0,6.0,15,0.00,CLR,,0.00,WeatherDisplay:10.37,2013-01-19 23:05:00,
2013-01-19 15:10:00,63.1,16.1,30.15,ENE,61,3.5,3.5,16,0.00,CLR,,0.00,WeatherDisplay:10.37,2013-01-19 23:10:00,
2013-01-19 15:15:00,63.2,14.7,30.15,ESE,107,10.4,10.4,15,0.00,CLR,,0.00,WeatherDisplay:10.37,2013-01-19 23:15:00,
2013-01-19 15:20:00,63.0,14.6,30.15,East,80,4.6,4.6,15,0.00,CLR,,0.00,WeatherDisplay:10.37,2013-01-19 23:20:00,
2013-01-19 15:25:00,63.0,14.6,30.15,ENE,76,5.8,5.8,15,0.00,CLR,,0.00,WeatherDisplay:10.37,2013-01-19 23:25:00,
2013-01-19 15:31:00,62.9,14.5,30.15,ENE,69,6.9,6.9,15,0.00,CLR,,0.00,WeatherDisplay:10.37,2013-01-19 23:31:00,
2013-01-19 15:36:00,62.9,14.5,30.15,NE,51,4.6,4.6,15,0.00,CLR,,0.00,WeatherDisplay:10.37,2013-01-19 23:36:00,
2013-01-19 15:41:00,62.9,14.5,30.15,ENE,74,12.7,12.7,15,0.00,CLR,,0.00,WeatherDisplay:10.37,2013-01-19 23:41:00,
2013-01-19 15:47:00,62.9,14.5,30.15,ENE,71,6.9,6.9,15,0.00,CLR,,0.00,WeatherDisplay:10.37,2013-01-19 23:47:00,
2013-01-19 15:52:00,62.8,14.4,30.15,ENE,68,6.0,6.0,15,0.00,CLR,,0.00,WeatherDisplay:10.37,2013-01-19 23:52:00,
2013-01-19 15:57:00,62.8,15.9,30.15,ENE,68,9.2,9.2,16,0.00,CLR,,0.00,WeatherDisplay:10.37,2013-01-19 23:57:00,
2013-01-19 16:02:00,62.9,14.5,30.16,NE,45,6.9,6.9,15,0.00,CLR,,0.00,WeatherDisplay:10.37,2013-01-20 00:02:00,
2013-01-19 16:07:00,62.9,14.5,30.16,ENE,63,4.0,4.0,15,0.00,CLR,,0.00,WeatherDisplay:10.37,2013-01-20 00:07:00,
2013-01-19 16:13:00,62.9,14.5,30.16,East,80,6.0,6.0,15,0.00,CLR,,0.00,WeatherDisplay:10.37,2013-01-20 00:13:00,
2013-01-19 16:18:00,62.7,14.3,30.16,NE,46,3.5,3.5,15,0.00,CLR,,0.00,WeatherDisplay:10.37,2013-01-20 00:18:00,
2013-01-19 16:23:00,62.7,14.3,30.16,NE,49,4.6,4.6,15,0.00,CLR,,0.00,WeatherDisplay:10.37,2013-01-20 00:23:00,
2013-01-19 16:28:00,62.5,14.2,30.16,NE,42,4.6,4.6,15,0.00,CLR,,0.00,WeatherDisplay:10.37,2013-01-20 00:28:00,
2013-01-19 16:33:00,62.2,13.9,30.16,NE,49,4.6,4.6,15,0.00,CLR,,0.00,WeatherDisplay:10.37,2013-01-20 00:33:00,
2013-01-19 16:39:00,61.9,15.1,30.16,NE,44,3.5,3.5,16,0.00,CLR,,0.00,WeatherDisplay:10.37,2013-01-20 00:39:00,
2013-01-19 16:44:00,61.6,14.9,30.16,NE,42,3.5,3.5,16,0.00,CLR,,0.00,WeatherDisplay:10.37,2013-01-20 00:44:00,
2013-01-19 16:49:00,61.3,14.7,30.16,NE,43,3.5,3.5,16,0.00,CLR,,0.00,WeatherDisplay:10.37,2013-01-20 00:49:00,
2013-01-19 16:54:00,60.9,14.3,30.16,NE,42,2.3,2.3,16,0.00,CLR,,0.00,WeatherDisplay:10.37,2013-01-20 00:54:00,
2013-01-19 16:59:00,60.6,14.1,30.16,NE,42,3.5,3.5,16,0.00,CLR,,0.00,WeatherDisplay:10.37,2013-01-20 00:59:00,
2013-01-19 17:04:00,60.2,13.8,30.17,NE,41,2.3,2.3,16,0.00,CLR,,0.00,WeatherDisplay:10.37,2013-01-20 01:04:00,
2013-01-19 17:09:00,59.7,13.4,30.17,NE,34,3.5,3.5,16,0.00,CLR,,0.00,WeatherDisplay:10.37,2013-01-20 01:09:00,
2013-01-19 17:15:00,59.2,13.0,30.17,NNE,32,3.5,3.5,16,0.00,CLR,,0.00,WeatherDisplay:10.37,2013-01-20 01:15:00,
2013-01-19 17:20:00,59.0,14.2,30.17,NNE,29,3.5,3.5,17,0.00,CLR,,0.00,WeatherDisplay:10.37,2013-01-20 01:20:00,
2013-01-19 17:25:00,58.2,13.5,30.18,NNE,25,3.5,3.5,17,0.00,CLR,,0.00,WeatherDisplay:10.37,2013-01-20 01:25:00,
2013-01-19 17:30:00,57.6,13.0,30.18,NNE,19,4.6,4.6,17,0.00,CLR,,0.00,WeatherDisplay:10.37,2013-01-20 01:30:00,
2013-01-19 17:35:00,57.3,12.8,30.18,NNE,16,4.6,4.6,17,0.00,CLR,,0.00,WeatherDisplay:10.37,2013-01-20 01:35:00,
2013-01-19 17:40:00,57.1,12.6,30.18,NNE,17,3.5,3.5,17,0.00,CLR,,0.00,WeatherDisplay:10.37,2013-01-20 01:40:00,
2013-01-19 17:45:00,56.8,12.4,30.18,NNE,19,4.6,4.6,17,0.00,CLR,,0.00,WeatherDisplay:10.37,2013-01-20 01:45:00,
2013-01-19 17:50:00,56.6,12.2,30.18,NNE,19,3.5,3.5,17,0.00,CLR,,0.00,WeatherDisplay:10.37,2013-01-20 01:50:00,
2013-01-19 17:56:00,56.3,13.3,30.19,NNE,19,3.5,3.5,18,0.00,CLR,,0.00,WeatherDisplay:10.37,2013-01-20 01:56:00,
2013-01-19 18:01:00,55.9,12.9,30.19,NNE,19,3.5,3.5,18,0.00,CLR,,0.00,WeatherDisplay:10.37,2013-01-20 02:01:00,
2013-01-19 18:06:00,55.6,12.7,30.19,NNE,19,4.0,4.0,18,0.00,CLR,,0.00,WeatherDisplay:10.37,2013-01-20 02:06:00,
2013-01-19 18:13:00,55.4,12.5,30.19,NNE,19,4.6,4.6,18,0.00,CLR,,0.00,WeatherDisplay:10.37,2013-01-20 02:13:00,
2013-01-19 18:18:00,55.0,12.2,30.19,NNE,20,3.5,3.5,18,0.00,CLR,,0.00,WeatherDisplay:10.37,2013-01-20 02:18:00,
2013-01-19 18:23:00,54.6,11.9,30.20,NNE,19,4.0,4.0,18,0.00,CLR,,0.00,WeatherDisplay:10.37,2013-01-20 02:23:00,
2013-01-19 18:28:00,54.6,11.9,30.20,NNE,17,4.6,4.6,18,0.00,CLR,,0.00,WeatherDisplay:10.37,2013-01-20 02:28:00,
2013-01-19 18:33:00,54.6,11.9,30.20,NNE,17,4.6,4.6,18,0.00,CLR,,0.00,WeatherDisplay:10.37,2013-01-20 02:33:00,
2013-01-19 18:38:00,54.5,11.8,30.20,NNE,13,3.5,3.5,18,0.00,CLR,,0.00,WeatherDisplay:10.37,2013-01-20 02:38:00,
2013-01-19 18:43:00,54.4,11.7,30.20,NNE,13,3.5,3.5,18,0.00,CLR,,0.00,WeatherDisplay:10.37,2013-01-20 02:43:00,
2013-01-19 18:48:00,54.5,11.8,30.20,NNE,15,3.5,3.5,18,0.00,CLR,,0.00,WeatherDisplay:10.37,2013-01-20 02:48:00,
2013-01-19 18:54:00,54.3,11.6,30.20,NNE,15,5.8,5.8,18,0.00,CLR,,0.00,WeatherDisplay:10.37,2013-01-20 02:54:00,
2013-01-19 18:59:00,54.2,11.5,30.20,NNE,16,6.0,6.0,18,0.00,CLR,,0.00,WeatherDisplay:10.37,2013-01-20 02:59:00,
2013-01-19 19:04:00,53.9,12.5,30.20,NNE,15,4.6,4.6,19,0.00,CLR,,0.00,WeatherDisplay:10.37,2013-01-20 03:04:00,
2013-01-19 19:09:00,53.2,11.9,30.20,NNE,23,6.0,6.0,19,0.00,CLR,,0.00,WeatherDisplay:10.37,2013-01-20 03:09:00,
2013-01-19 19:14:00,52.7,11.5,30.20,NNE,21,6.0,6.0,19,0.00,CLR,,0.00,WeatherDisplay:10.37,2013-01-20 03:14:00,
2013-01-19 19:19:00,52.2,11.1,30.20,NNE,24,7.0,7.0,19,0.00,CLR,,0.00,WeatherDisplay:10.37,2013-01-20 03:19:00,
2013-01-19 19:24:00,52.1,11.0,30.20,NNE,18,5.8,5.8,19,0.00,CLR,,0.00,WeatherDisplay:10.37,2013-01-20 03:24:00,
2013-01-19 19:30:00,52.6,11.4,30.20,NNE,26,6.9,6.9,19,0.00,CLR,,0.00,WeatherDisplay:10.37,2013-01-20 03:30:00,
2013-01-19 19:35:00,53.0,11.8,30.20,NNE,18,5.8,5.8,19,0.00,CLR,,0.00,WeatherDisplay:10.37,2013-01-20 03:35:00,
2013-01-19 19:40:00,52.9,11.7,30.21,NNE,19,5.0,5.0,19,0.00,CLR,,0.00,WeatherDisplay:10.37,2013-01-20 03:40:00,
2013-01-19 19:45:00,52.4,11.3,30.22,NNE,19,2.3,2.3,19,0.00,CLR,,0.00,WeatherDisplay:10.37,2013-01-20 03:45:00,
2013-01-19 19:50:00,52.0,10.9,30.22,North,11,3.5,3.5,19,0.00,CLR,,0.00,WeatherDisplay:10.37,2013-01-20 03:50:00,
2013-01-19 19:56:00,51.6,10.6,30.22,North,9,0.0,0.0,19,0.00,CLR,,0.00,WeatherDisplay:10.37,2013-01-20 03:56:00,
2013-01-19 20:01:00,50.6,10.9,30.19,North,5,2.0,2.0,20,0.00,CLR,,0.00,WeatherDisplay:10.37,2013-01-20 04:01:00,
2013-01-19 20:07:00,49.9,10.4,30.19,North,11,6.9,6.9,20,0.00,CLR,,0.00,WeatherDisplay:10.37,2013-01-20 04:07:00,
2013-01-19 20:12:00,51.1,10.2,30.19,North,5,9.2,9.2,19,0.00,CLR,,0.00,WeatherDisplay:10.37,2013-01-20 04:12:00,
2013-01-19 20:17:00,52.1,9.8,30.19,North,360,9.2,9.2,18,0.00,CLR,,0.00,WeatherDisplay:10.37,2013-01-20 04:17:00,
2013-01-19 20:22:00,46.9,7.8,30.21,South,179,4.6,4.6,20,0.00,CLR,,0.00,WeatherDisplay:10.37,2013-01-20 04:22:00,
2013-01-19 20:28:00,43.4,7.0,30.22,South,180,4.6,4.9,22,0.00,CLR,,0.00,WeatherDisplay:10.37,2013-01-20 04:28:00,
2013-01-19 20:33:00,40.0,5.1,30.23,South,180,3.5,3.5,23,0.00,CLR,,0.00,WeatherDisplay:10.37,2013-01-20 04:33:00,
2013-01-19 20:38:00,38.1,4.4,30.24,South,180,2.3,2.3,24,0.00,CLR,,0.00,WeatherDisplay:10.37,2013-01-20 04:38:00,
2013-01-19 20:43:00,36.7,5.0,30.24,South,179,3.5,3.5,26,0.00,CLR,,0.00,WeatherDisplay:10.37,2013-01-20 04:43:00,
2013-01-19 20:48:00,36.4,4.7,30.25,South,180,2.3,2.3,26,0.00,CLR,,0.00,WeatherDisplay:10.37,2013-01-20 04:48:00,
2013-01-19 20:53:00,36.6,4.9,30.24,South,180,1.1,0.0,26,0.00,CLR,,0.00,WeatherDisplay:10.37,2013-01-20 04:53:00,
2013-01-19 20:58:00,36.8,5.1,30.25,South,180,0.0,0.0,26,0.00,CLR,,0.00,WeatherDisplay:10.37,2013-01-20 04:58:00,
2013-01-19 21:00:00,36.8,5.9,30.24,South,179,0.0,0.0,27,0.00,CLR,,0.00,WeatherDisplay:10.37,2013-01-20 05:00:00,
2013-01-19 21:01:00,36.8,5.9,30.23,South,180,0.0,0.0,27,0.00,CLR,,0.00,WeatherDisplay:10.37,2013-01-20 05:01:00,
2013-01-19 21:03:00,37.1,5.3,30.23,South,180,0.0,0.0,26,0.00,CLR,,0.00,WeatherDisplay:10.37,2013-01-20 05:03:00,
2013-01-19 21:08:00,37.6,6.6,30.23,South,180,0.0,0.0,27,0.00,CLR,,0.00,WeatherDisplay:10.37,2013-01-20 05:08:00,
2013-01-19 21:13:00,38.6,7.4,30.22,South,180,4.0,4.0,27,0.00,CLR,,0.00,WeatherDisplay:10.37,2013-01-20 05:13:00,
2013-01-19 21:18:00,38.4,5.6,30.23,South,179,5.0,5.0,25,0.00,CLR,,0.00,WeatherDisplay:10.37,2013-01-20 05:18:00,
2013-01-19 21:23:00,37.5,4.8,30.23,South,180,3.5,3.5,25,0.00,CLR,,0.00,WeatherDisplay:10.37,2013-01-20 05:23:00,
2013-01-19 21:28:00,36.8,5.1,30.23,South,180,3.5,3.5,26,0.00,CLR,,0.00,WeatherDisplay:10.37,2013-01-20 05:28:00,
2013-01-19 21:33:00,36.5,4.8,30.23,South,179,3.5,3.5,26,0.00,CLR,,0.00,WeatherDisplay:10.37,2013-01-20 05:33:00,
2013-01-19 21:38:00,36.3,5.5,30.24,South,179,2.3,2.3,27,0.00,CLR,,0.00,WeatherDisplay:10.37,2013-01-20 05:38:00,
2013-01-19 21:43:00,36.2,5.4,30.24,South,180,0.0,0.0,27,0.00,CLR,,0.00,WeatherDisplay:10.37,2013-01-20 05:43:00,
2013-01-19 21:48:00,36.1,5.3,30.24,South,180,0.0,0.0,27,0.00,CLR,,0.00,WeatherDisplay:10.37,2013-01-20 05:48:00,
2013-01-19 21:53:00,36.0,5.2,30.24,South,180,0.0,0.0,27,0.00,CLR,,0.00,WeatherDisplay:10.37,2013-01-20 05:53:00,
2013-01-19 21:58:00,36.0,5.2,30.24,South,179,0.0,0.0,27,0.00,CLR,,0.00,WeatherDisplay:10.37,2013-01-20 05:58:00,
2013-01-19 22:03:00,35.7,4.9,30.22,South,180,0.0,0.0,27,0.00,CLR,,0.00,WeatherDisplay:10.37,2013-01-20 06:03:00,
2013-01-19 22:08:00,35.3,4.6,30.23,South,179,0.0,0.0,27,0.00,CLR,,0.00,WeatherDisplay:10.37,2013-01-20 06:08:00,
2013-01-19 22:13:00,34.8,4.9,30.23,NE,52,2.3,2.3,28,0.00,CLR,,0.00,WeatherDisplay:10.37,2013-01-20 06:13:00,
2013-01-19 22:18:00,34.4,4.6,30.23,NE,52,1.1,1.1,28,0.00,CLR,,0.00,WeatherDisplay:10.37,2013-01-20 06:18:00,
2013-01-19 22:23:00,34.4,4.6,30.23,NE,48,1.1,0.0,28,0.00,CLR,,0.00,WeatherDisplay:10.37,2013-01-20 06:23:00,
2013-01-19 22:28:00,34.7,4.1,30.23,NE,44,0.0,0.0,27,0.00,CLR,,0.00,WeatherDisplay:10.37,2013-01-20 06:28:00,
2013-01-19 22:33:00,35.1,4.4,30.23,NNE,29,0.0,0.0,27,0.00,CLR,,0.00,WeatherDisplay:10.37,2013-01-20 06:33:00,
2013-01-19 22:38:00,34.0,3.5,30.23,NNE,30,0.0,0.0,27,0.00,CLR,,0.00,WeatherDisplay:10.37,2013-01-20 06:38:00,
2013-01-19 22:43:00,31.9,2.4,30.24,NNE,33,3.5,3.5,28,0.00,CLR,,0.00,WeatherDisplay:10.37,2013-01-20 06:43:00,
2013-01-19 22:48:00,31.3,1.9,30.24,West,263,3.5,3.5,28,0.00,CLR,,0.00,WeatherDisplay:10.37,2013-01-20 06:48:00,
2013-01-19 22:53:00,30.8,2.2,30.24,West,263,3.5,3.5,29,0.00,CLR,,0.00,WeatherDisplay:10.37,2013-01-20 06:53:00,
2013-01-19 22:58:00,31.3,3.4,30.24,West,263,2.3,2.3,30,0.00,CLR,,0.00,WeatherDisplay:10.37,2013-01-20 06:58:00,
2013-01-19 23:03:00,32.2,4.2,30.22,West,263,3.5,3.5,30,0.00,CLR,,0.00,WeatherDisplay:10.37,2013-01-20 07:03:00,
2013-01-19 23:08:00,33.5,4.6,30.21,West,263,3.5,3.5,29,0.00,CLR,,0.00,WeatherDisplay:10.37,2013-01-20 07:08:00,
2013-01-19 23:13:00,34.4,5.4,30.21,West,263,2.3,2.3,29,0.00,CLR,,0.00,WeatherDisplay:10.37,2013-01-20 07:13:00,
2013-01-19 23:18:00,35.3,5.4,30.20,West,263,1.1,0.0,28,0.00,CLR,,0.00,WeatherDisplay:10.37,2013-01-20 07:18:00,
2013-01-19 23:23:00,35.9,5.1,30.20,West,263,0.0,0.0,27,0.00,CLR,,0.00,WeatherDisplay:10.37,2013-01-20 07:23:00,
2013-01-19 23:28:00,35.5,4.8,30.20,West,263,0.0,0.0,27,0.00,CLR,,0.00,WeatherDisplay:10.37,2013-01-20 07:28:00,
2013-01-19 23:33:00,34.7,4.9,30.20,West,263,0.0,0.0,28,0.00,CLR,,0.00,WeatherDisplay:10.37,2013-01-20 07:33:00,
2013-01-19 23:38:00,33.3,2.9,30.21,SSE,161,4.0,4.0,27,0.00,CLR,,0.00,WeatherDisplay:10.37,2013-01-20 07:38:00,
2013-01-19 23:43:00,32.4,3.6,30.21,SE,137,5.0,5.0,29,0.00,CLR,,0.00,WeatherDisplay:10.37,2013-01-20 07:43:00,
2013-01-19 23:48:00,32.7,3.9,30.21,ESE,102,4.6,4.6,29,0.00,CLR,,0.00,WeatherDisplay:10.37,2013-01-20 07:48:00,
2013-01-19 23:53:00,32.5,3.7,30.21,ESE,102,3.5,3.5,29,0.00,CLR,,0.00,WeatherDisplay:10.37,2013-01-20 07:53:00,
2013-01-19 23:58:00,31.9,3.9,30.21,ESE,102,3.5,3.5,30,0.00,CLR,,0.00,WeatherDisplay:10.37,2013-01-20 07:58:00,